Time;durP1;ratioP1;P1;durP2;ratioP2;P2;SDS_P1;SDS_P2;PMS_P1;PMS_P2;Temp;Humidity;BMP_temperature;BMP_pressure;BME280_temperature;BME280_humidity;BME280_pressure;Samples;Min_cycle;Max_cycle;Signal;HPM_P1;HPM_P2
2021/05/21 00:00:14;;;;;;;1.73;0.77;;;12.40;99.90;;;;;;5060875;28;20028;-82
2021/05/21 00:02:40;;;;;;;1.20;0.50;;;12.40;99.90;;;;;;5042695;28;20029;-81
2021/05/21 00:05:06;;;;;;;1.05;0.60;;;12.40;99.90;;;;;;5060656;28;20042;-81
2021/05/21 00:07:32;;;;;;;1.48;0.70;;;12.40;99.90;;;;;;5042685;28;20490;-82
2021/05/21 00:09:57;;;;;;;1.45;0.60;;;12.40;99.90;;;;;;5042288;28;20139;-80
2021/05/21 00:12:23;;;;;;;1.42;0.70;;;12.40;99.90;;;;;;5061704;28;20036;-82
2021/05/21 00:14:49;;;;;;;3.47;1.08;;;12.40;99.90;;;;;;5043784;28;20032;-81
2021/05/21 00:17:14;;;;;;;1.45;1.05;;;12.40;99.90;;;;;;5026424;28;20037;-81
2021/05/21 00:19:40;;;;;;;1.92;1.20;;;12.40;99.90;;;;;;5027133;28;20089;-81
2021/05/21 00:22:06;;;;;;;1.42;1.10;;;12.40;99.90;;;;;;5061756;28;20025;-82
2021/05/21 00:24:32;;;;;;;2.03;1.13;;;12.40;99.90;;;;;;5044055;28;20025;-81
2021/05/21 00:26:57;;;;;;;3.13;1.25;;;12.40;99.90;;;;;;5043753;28;20052;-81
2021/05/21 00:29:23;;;;;;;1.80;1.40;;;12.40;99.90;;;;;;5043483;28;20476;-81
2021/05/21 00:31:48;;;;;;;2.00;1.67;;;12.40;99.90;;;;;;5044159;28;20101;-81
2021/05/21 00:34:14;;;;;;;2.00;1.77;;;12.40;99.90;;;;;;5027174;28;20033;-81
2021/05/21 00:36:40;;;;;;;2.60;1.85;;;12.50;99.90;;;;;;5028171;28;20036;-80
2021/05/21 00:39:06;;;;;;;3.88;2.65;;;12.50;99.90;;;;;;5027106;28;20029;-81
2021/05/21 00:41:32;;;;;;;4.38;2.80;;;12.50;99.90;;;;;;5026690;28;20106;-81
2021/05/21 00:43:57;;;;;;;4.38;2.97;;;12.50;99.90;;;;;;5044447;28;20036;-80
2021/05/21 00:46:24;;;;;;;5.93;3.40;;;12.60;99.90;;;;;;5043814;28;20081;-81
2021/05/21 00:48:50;;;;;;;4.53;3.15;;;12.60;99.90;;;;;;5043688;28;20053;-80
2021/05/21 00:51:15;;;;;;;4.07;3.20;;;12.70;99.90;;;;;;5022990;28;20040;-81
2021/05/21 00:53:42;;;;;;;6.07;4.60;;;12.70;99.90;;;;;;5042554;28;20055;-81
2021/05/21 00:56:08;;;;;;;5.70;4.95;;;12.70;99.90;;;;;;5025222;28;20029;-81
2021/05/21 00:58:36;;;;;;;7.38;5.50;;;12.70;99.90;;;;;;5041760;28;20059;-82
2021/05/21 01:01:04;;;;;;;8.13;6.10;;;12.70;99.90;;;;;;5060686;28;20029;-81
2021/05/21 01:03:29;;;;;;;10.85;7.45;;;12.70;99.90;;;;;;5025939;28;20100;-80
2021/05/21 01:05:55;;;;;;;10.30;6.53;;;12.70;99.90;;;;;;5042346;28;20067;-80
2021/05/21 01:08:21;;;;;;;7.38;5.38;;;12.70;99.90;;;;;;5025380;28;20083;-81
2021/05/21 01:10:47;;;;;;;9.82;5.38;;;12.70;99.90;;;;;;5024760;28;20026;-81
2021/05/21 01:13:13;;;;;;;8.32;4.95;;;12.70;99.90;;;;;;5023489;28;20025;-81
2021/05/21 01:15:41;;;;;;;6.95;5.25;;;12.70;99.90;;;;;;5039740;28;20032;-81
2021/05/21 01:18:09;;;;;;;6.47;4.35;;;12.70;99.90;;;;;;5038823;28;20031;-81
2021/05/21 01:20:36;;;;;;;7.13;4.15;;;12.70;99.90;;;;;;5039393;28;20471;-82
2021/05/21 01:23:03;;;;;;;5.47;3.72;;;12.70;99.90;;;;;;5038829;28;20029;-81
2021/05/21 01:25:29;;;;;;;5.47;3.33;;;12.70;99.90;;;;;;5021537;28;20029;-81
2021/05/21 01:27:57;;;;;;;4.85;2.38;;;12.70;99.90;;;;;;5036193;28;20045;-81
2021/05/21 01:30:24;;;;;;;3.78;2.50;;;12.60;99.90;;;;;;5034393;28;20285;-81
2021/05/21 01:32:50;;;;;;;2.50;1.80;;;12.60;99.90;;;;;;5036766;28;20058;-82
2021/05/21 01:35:17;;;;;;;6.05;2.47;;;12.60;99.90;;;;;;5036590;28;20033;-82
2021/05/21 01:37:45;;;;;;;4.95;2.50;;;12.60;99.90;;;;;;5054595;28;20411;-81
2021/05/21 01:40:12;;;;;;;3.70;2.15;;;12.50;99.90;;;;;;5034733;28;20139;-82
2021/05/21 01:42:38;;;;;;;2.97;1.88;;;12.50;99.90;;;;;;5036358;28;20046;-82
2021/05/21 01:45:07;;;;;;;2.97;2.25;;;12.50;99.90;;;;;;5052643;28;20051;-81
2021/05/21 01:47:33;;;;;;;2.90;2.20;;;12.50;99.90;;;;;;5053736;28;20055;-82
2021/05/21 01:50:00;;;;;;;3.13;2.15;;;12.50;99.90;;;;;;5054633;28;20021;-82
2021/05/21 01:52:25;;;;;;;5.45;2.25;;;12.40;99.90;;;;;;5034704;28;20033;-81
2021/05/21 01:54:51;;;;;;;3.00;1.80;;;12.40;99.90;;;;;;5017237;28;20430;-83
2021/05/21 01:57:17;;;;;;;3.60;1.83;;;12.30;99.90;;;;;;5017704;28;20066;-83
2021/05/21 01:59:42;;;;;;;2.90;1.95;;;12.30;99.90;;;;;;5034959;28;20550;-82
2021/05/21 02:02:09;;;;;;;4.30;2.35;;;12.30;99.90;;;;;;5018668;28;20036;-81
2021/05/21 02:04:38;;;;;;;3.17;1.70;;;12.20;99.90;;;;;;5034175;28;20033;-81
2021/05/21 02:07:05;;;;;;;2.40;1.70;;;12.20;99.90;;;;;;5034276;28;20032;-81
2021/05/21 02:09:55;;;;;;;2.33;1.65;;;12.20;99.90;;;;;;5019932;28;20025;-83
2021/05/21 02:12:25;;;;;;;1.95;1.38;;;12.20;99.90;;;;;;5040639;28;20033;-82
2021/05/21 02:14:52;;;;;;;2.65;1.42;;;12.10;99.90;;;;;;5051519;28;20022;-81
2021/05/21 02:17:18;;;;;;;4.43;1.38;;;12.10;99.90;;;;;;5052034;28;20029;-83
2021/05/21 02:19:44;;;;;;;3.20;1.60;;;12.10;99.90;;;;;;5051914;28;20036;-81
2021/05/21 02:22:11;;;;;;;2.30;1.45;;;12.10;99.90;;;;;;5033717;28;20032;-82
2021/05/21 02:24:37;;;;;;;2.13;1.48;;;12.10;99.90;;;;;;5032708;28;20429;-81
2021/05/21 02:27:03;;;;;;;2.65;1.30;;;12.10;99.90;;;;;;5016018;28;20037;-81
2021/05/21 02:29:29;;;;;;;1.75;1.20;;;12.00;99.90;;;;;;5016879;28;20097;-81
2021/05/21 02:31:55;;;;;;;2.63;1.20;;;12.00;99.90;;;;;;5016524;28;20056;-83
2021/05/21 02:34:20;;;;;;;5.35;1.40;;;12.00;99.90;;;;;;5032807;28;20536;-82
2021/05/21 02:36:46;;;;;;;1.55;1.10;;;12.00;99.90;;;;;;5016967;28;20033;-82
2021/05/21 02:39:12;;;;;;;2.45;1.30;;;12.00;99.90;;;;;;5015516;28;20029;-82
2021/05/21 02:41:38;;;;;;;2.58;1.23;;;11.90;99.90;;;;;;5033389;28;20026;-81
2021/05/21 02:44:04;;;;;;;2.15;1.10;;;11.90;99.90;;;;;;5050762;28;20021;-83
2021/05/21 02:46:30;;;;;;;2.42;1.23;;;11.90;99.90;;;;;;5050226;28;20099;-83
2021/05/21 02:48:55;;;;;;;2.65;0.88;;;11.80;99.90;;;;;;5033802;28;20053;-82
2021/05/21 02:51:21;;;;;;;2.95;1.10;;;11.80;99.90;;;;;;5016934;28;20383;-81
2021/05/21 02:53:47;;;;;;;2.58;0.90;;;11.80;99.90;;;;;;5050935;28;20098;-82
2021/05/21 02:56:13;;;;;;;1.15;1.00;;;11.80;99.90;;;;;;5031818;28;20170;-82
2021/05/21 02:58:39;;;;;;;1.05;0.80;;;11.70;99.90;;;;;;5017007;28;20479;-82
2021/05/21 03:01:04;;;;;;;1.70;0.93;;;11.70;99.90;;;;;;5015856;28;20112;-82
2021/05/21 03:03:30;;;;;;;1.50;1.13;;;11.70;99.90;;;;;;5016779;28;20057;-82
2021/05/21 03:05:56;;;;;;;1.35;0.88;;;11.70;99.90;;;;;;5015615;28;20432;-83
2021/05/21 03:08:22;;;;;;;1.80;0.85;;;11.70;99.90;;;;;;5016250;28;20025;-82
2021/05/21 03:10:48;;;;;;;1.75;0.77;;;11.60;99.90;;;;;;5032368;28;20033;-82
2021/05/21 03:13:14;;;;;;;2.63;0.95;;;11.60;99.90;;;;;;5031724;28;20067;-83
2021/05/21 03:15:42;;;;;;;1.13;0.68;;;11.60;99.90;;;;;;5016679;28;20120;-83
2021/05/21 03:18:13;;;;;;;0.70;0.68;;;11.60;99.90;;;;;;5016588;28;20033;-82
2021/05/21 03:20:41;;;;;;;1.17;0.80;;;11.60;99.90;;;;;;5032565;28;20053;-83
2021/05/21 03:23:08;;;;;;;3.03;0.80;;;11.60;99.90;;;;;;5016970;28;20132;-82
2021/05/21 03:25:35;;;;;;;1.45;0.93;;;11.50;99.90;;;;;;5032953;28;20068;-84
2021/05/21 03:28:01;;;;;;;1.00;0.80;;;11.50;99.90;;;;;;5017132;28;20025;-82
2021/05/21 03:30:27;;;;;;;1.35;0.80;;;11.40;99.90;;;;;;5051064;28;20025;-82
2021/05/21 03:32:52;;;;;;;5.88;1.10;;;11.40;99.90;;;;;;5033068;28;20024;-82
2021/05/21 03:35:18;;;;;;;1.90;1.10;;;11.40;99.90;;;;;;5034709;28;20096;-82
2021/05/21 03:37:44;;;;;;;1.55;1.10;;;11.30;99.90;;;;;;5034667;28;20036;-82
2021/05/21 03:40:10;;;;;;;1.00;0.80;;;11.30;99.90;;;;;;5034818;28;20021;-82
2021/05/21 03:42:36;;;;;;;0.65;0.65;;;11.30;99.90;;;;;;5018456;28;20033;-82
2021/05/21 03:45:04;;;;;;;0.98;0.70;;;11.30;99.90;;;;;;5052702;28;20171;-82
2021/05/21 03:47:30;;;;;;;1.52;0.88;;;11.30;99.90;;;;;;5035480;28;20159;-82
2021/05/21 03:49:56;;;;;;;1.00;0.70;;;11.30;99.90;;;;;;5033696;28;20056;-81
2021/05/21 03:52:22;;;;;;;0.88;0.70;;;11.20;99.90;;;;;;5038197;28;20017;-82
2021/05/21 03:54:48;;;;;;;0.90;0.75;;;11.20;99.90;;;;;;5021199;28;20042;-82
2021/05/21 03:57:13;;;;;;;2.20;0.70;;;11.20;99.90;;;;;;5036993;28;20029;-81
2021/05/21 03:59:39;;;;;;;1.50;0.70;;;11.20;99.90;;;;;;5020166;28;20025;-82
2021/05/21 04:02:05;;;;;;;1.70;1.13;;;11.20;99.90;;;;;;5036910;28;20116;-82
2021/05/21 04:04:31;;;;;;;0.80;0.63;;;11.10;99.90;;;;;;5039285;28;20090;-82
2021/05/21 04:06:56;;;;;;;4.13;1.00;;;11.10;99.90;;;;;;5040054;28;20074;-82
2021/05/21 04:09:22;;;;;;;2.25;1.00;;;11.10;99.90;;;;;;5025197;28;20032;-82
2021/05/21 04:11:48;;;;;;;2.45;1.20;;;11.20;99.90;;;;;;5025899;28;20032;-82
2021/05/21 04:14:14;;;;;;;2.80;1.10;;;11.10;99.90;;;;;;5044179;28;20036;-81
2021/05/21 04:16:40;;;;;;;1.95;1.25;;;11.20;99.90;;;;;;5045049;28;20028;-81
2021/05/21 04:19:06;;;;;;;2.80;1.13;;;11.10;99.90;;;;;;5043429;28;20040;-82
2021/05/21 04:21:32;;;;;;;1.30;1.10;;;11.10;99.90;;;;;;5044135;28;20017;-83
2021/05/21 04:23:59;;;;;;;1.85;1.20;;;11.10;99.90;;;;;;5044260;28;20036;-82
2021/05/21 04:26:26;;;;;;;2.83;1.58;;;11.10;99.90;;;;;;5026993;28;20525;-82
2021/05/21 04:28:52;;;;;;;2.55;1.73;;;11.10;99.90;;;;;;5059495;28;20079;-83
2021/05/21 04:31:18;;;;;;;2.95;1.23;;;11.10;99.90;;;;;;5040351;28;20021;-83
2021/05/21 04:33:44;;;;;;;2.50;1.30;;;11.10;99.90;;;;;;5040675;28;20540;-83
2021/05/21 04:36:10;;;;;;;2.28;1.00;;;11.10;99.90;;;;;;5024860;28;20036;-83
2021/05/21 04:38:37;;;;;;;4.13;1.05;;;11.10;99.90;;;;;;5041614;28;20033;-82
2021/05/21 04:41:04;;;;;;;2.45;1.10;;;11.10;99.90;;;;;;5041088;28;20483;-82
2021/05/21 04:43:30;;;;;;;2.42;1.00;;;11.00;99.90;;;;;;5060143;28;20028;-82
2021/05/21 04:45:57;;;;;;;2.95;1.20;;;11.00;99.90;;;;;;5059012;28;20045;-82
2021/05/21 04:48:23;;;;;;;1.55;1.45;;;11.00;99.90;;;;;;5024813;28;20024;-82
2021/05/21 04:50:50;;;;;;;4.22;1.08;;;11.00;99.90;;;;;;5041847;28;20029;-83
2021/05/21 04:53:16;;;;;;;3.78;1.10;;;11.00;99.90;;;;;;5041301;28;20024;-82
2021/05/21 04:55:42;;;;;;;1.30;0.85;;;10.90;99.90;;;;;;5025937;28;20029;-82
2021/05/21 04:58:09;;;;;;;2.47;1.02;;;11.00;99.90;;;;;;5042852;28;20037;-82
2021/05/21 05:00:35;;;;;;;1.67;0.88;;;10.90;99.90;;;;;;5026453;28;20086;-83
2021/05/21 05:03:13;;;;;;;2.20;0.90;;;10.90;99.90;;;;;;5041796;28;20040;-82
2021/05/21 05:05:39;;;;;;;5.03;0.80;;;10.90;99.90;;;;;;5062317;28;20078;-82
2021/05/21 05:08:05;;;;;;;1.10;0.60;;;10.90;99.90;;;;;;5059243;28;20530;-82
2021/05/21 05:10:31;;;;;;;2.10;0.50;;;10.90;99.90;;;;;;5025105;28;20116;-82
2021/05/21 05:12:57;;;;;;;2.33;0.68;;;10.90;99.90;;;;;;5041903;28;20493;-82
2021/05/21 05:15:23;;;;;;;4.40;0.80;;;10.90;99.90;;;;;;5043700;28;20348;-82
2021/05/21 05:17:51;;;;;;;5.28;0.88;;;10.90;99.90;;;;;;5043640;28;20033;-83
2021/05/21 05:20:20;;;;;;;1.52;0.75;;;10.90;99.90;;;;;;5043525;28;20064;-82
2021/05/21 05:22:46;;;;;;;2.00;0.73;;;10.90;99.90;;;;;;5042684;28;20067;-81
2021/05/21 05:25:13;;;;;;;2.05;0.90;;;10.90;99.90;;;;;;5060048;28;20398;-81
2021/05/21 05:27:39;;;;;;;3.22;0.80;;;10.90;99.90;;;;;;5036165;28;20028;-81
2021/05/21 05:30:05;;;;;;;1.98;0.75;;;10.90;99.90;;;;;;5035934;28;20095;-82
2021/05/21 05:32:31;;;;;;;0.95;0.50;;;10.90;99.90;;;;;;5053943;28;20025;-82
2021/05/21 05:34:57;;;;;;;2.60;0.90;;;10.90;99.90;;;;;;5054430;28;20024;-82
2021/05/21 05:37:22;;;;;;;1.60;0.55;;;10.90;99.90;;;;;;5054276;28;20040;-82
2021/05/21 05:39:48;;;;;;;5.93;0.77;;;10.90;99.90;;;;;;5020958;28;20119;-81
2021/05/21 05:42:14;;;;;;;3.35;0.88;;;10.90;99.90;;;;;;5042317;28;20052;-82
2021/05/21 05:44:40;;;;;;;4.07;0.60;;;10.90;99.90;;;;;;5042825;28;20041;-82
2021/05/21 05:47:05;;;;;;;0.95;0.50;;;10.80;99.90;;;;;;5044196;28;20079;-82
2021/05/21 05:49:31;;;;;;;1.27;0.60;;;10.90;99.90;;;;;;5043758;28;20033;-82
2021/05/21 05:51:57;;;;;;;4.07;0.68;;;10.90;99.90;;;;;;5025958;28;20029;-80
2021/05/21 05:54:23;;;;;;;6.60;0.98;;;10.90;99.90;;;;;;5059448;28;20021;-82
2021/05/21 05:56:48;;;;;;;2.95;0.60;;;10.90;99.90;;;;;;5041310;28;20024;-82
2021/05/21 05:59:14;;;;;;;1.60;0.60;;;10.90;99.90;;;;;;5059795;28;20339;-82
2021/05/21 06:01:40;;;;;;;3.28;0.60;;;10.90;99.90;;;;;;5026705;28;20025;-81
2021/05/21 06:04:06;;;;;;;1.02;0.50;;;10.90;99.90;;;;;;5043191;28;20028;-81
2021/05/21 06:06:31;;;;;;;0.80;0.60;;;11.00;99.90;;;;;;5042635;28;20088;-82
2021/05/21 06:08:57;;;;;;;4.00;0.70;;;11.00;99.90;;;;;;5026204;28;20459;-81
2021/05/21 06:11:24;;;;;;;3.08;0.60;;;11.00;99.90;;;;;;5041599;28;20078;-82
2021/05/21 06:13:50;;;;;;;3.15;0.80;;;11.10;99.90;;;;;;5026094;28;20029;-82
2021/05/21 06:16:15;;;;;;;5.25;1.45;;;11.10;99.90;;;;;;5025573;28;20052;-82
2021/05/21 06:18:41;;;;;;;5.18;0.85;;;11.10;99.90;;;;;;5024736;28;20073;-82
2021/05/21 06:21:09;;;;;;;0.93;0.70;;;11.10;99.90;;;;;;5025424;28;20033;-82
2021/05/21 06:23:35;;;;;;;2.35;0.60;;;11.10;99.90;;;;;;5025098;28;20048;-80
2021/05/21 06:28:41;;;;;;;2.65;0.77;;;11.10;99.90;;;;;;5059955;28;20033;-82
2021/05/21 06:31:06;;;;;;;2.60;0.90;;;11.10;99.90;;;;;;5042507;28;20025;-83
2021/05/21 06:33:32;;;;;;;4.82;0.70;;;11.10;99.90;;;;;;5025825;28;20035;-82
2021/05/21 06:35:58;;;;;;;2.65;0.90;;;11.20;99.90;;;;;;5024543;28;20102;-82
2021/05/21 06:38:23;;;;;;;4.75;0.93;;;11.20;99.90;;;;;;5023024;28;20029;-82
2021/05/21 06:40:49;;;;;;;1.23;0.50;;;11.20;99.90;;;;;;5024283;28;20495;-82
2021/05/21 06:43:15;;;;;;;1.45;0.60;;;11.20;99.90;;;;;;5040984;28;20036;-81
2021/05/21 06:45:41;;;;;;;2.58;1.08;;;11.20;99.90;;;;;;5039413;28;20415;-81
2021/05/21 06:48:07;;;;;;;3.53;0.80;;;11.20;99.90;;;;;;5037815;28;20029;-82
2021/05/21 06:50:33;;;;;;;1.25;0.63;;;11.20;99.90;;;;;;5023958;28;20029;-82
2021/05/21 06:52:59;;;;;;;3.25;1.52;;;11.30;99.90;;;;;;5022990;28;20025;-82
2021/05/21 06:55:25;;;;;;;2.00;0.70;;;11.30;99.90;;;;;;5037717;28;20035;-82
2021/05/21 06:57:51;;;;;;;3.70;0.77;;;11.30;99.90;;;;;;5017893;28;20025;-82
2021/05/21 07:00:18;;;;;;;4.28;1.55;;;11.40;99.90;;;;;;5033570;28;20036;-82
2021/05/21 07:02:44;;;;;;;6.60;1.20;;;11.40;99.90;;;;;;5034321;28;20392;-82
2021/05/21 07:05:12;;;;;;;3.35;0.63;;;11.40;99.90;;;;;;5035211;28;20029;-83
2021/05/21 07:07:38;;;;;;;6.03;0.70;;;11.40;99.90;;;;;;5033516;28;20060;-83
2021/05/21 07:10:04;;;;;;;1.80;0.57;;;11.50;99.90;;;;;;5033791;28;20033;-83
2021/05/21 07:12:30;;;;;;;4.20;1.08;;;11.50;99.90;;;;;;5017176;28;20045;-83
2021/05/21 07:14:56;;;;;;;5.82;1.08;;;11.50;99.90;;;;;;5015758;28;20075;-83
2021/05/21 07:17:21;;;;;;;6.20;1.10;;;11.60;99.90;;;;;;5031990;28;20432;-83
2021/05/21 07:19:47;;;;;;;4.68;1.13;;;11.70;99.90;;;;;;5016772;28;20044;-84
2021/05/21 07:22:13;;;;;;;3.08;0.70;;;11.70;99.90;;;;;;5034339;28;20128;-82
2021/05/21 07:24:39;;;;;;;3.30;0.73;;;11.80;99.90;;;;;;5032034;28;20033;-83
2021/05/21 07:27:05;;;;;;;2.88;0.60;;;11.80;99.90;;;;;;5035150;28;20033;-83
2021/05/21 07:29:31;;;;;;;2.35;0.73;;;11.80;99.90;;;;;;5021275;28;20031;-83
2021/05/21 07:31:56;;;;;;;1.08;0.40;;;11.90;99.90;;;;;;5036863;28;20095;-84
2021/05/21 07:34:22;;;;;;;1.90;0.77;;;11.90;99.90;;;;;;5054372;28;20045;-82
2021/05/21 07:36:48;;;;;;;2.40;0.90;;;11.90;99.90;;;;;;5035734;28;20021;-82
2021/05/21 07:39:15;;;;;;;4.78;1.42;;;11.80;99.90;;;;;;5020217;28;20021;-82
2021/05/21 07:41:41;;;;;;;6.10;0.95;;;11.90;99.90;;;;;;5020545;28;20441;-83
2021/05/21 07:44:07;;;;;;;1.85;1.23;;;11.90;99.90;;;;;;5036811;28;20055;-81
2021/05/21 07:46:34;;;;;;;2.97;0.68;;;11.90;99.90;;;;;;5036154;28;20057;-81
2021/05/21 07:49:00;;;;;;;6.70;0.80;;;12.00;99.90;;;;;;5019539;28;20033;-82
2021/05/21 07:51:25;;;;;;;4.28;1.00;;;12.00;99.90;;;;;;5055343;28;20019;-82
2021/05/21 07:53:51;;;;;;;5.93;1.13;;;12.00;99.90;;;;;;5019845;28;20398;-85
2021/05/21 07:56:17;;;;;;;7.13;0.98;;;12.10;99.90;;;;;;5034167;28;20064;-83
2021/05/21 07:58:43;;;;;;;3.67;1.00;;;12.00;99.90;;;;;;5019053;28;20044;-82
2021/05/21 08:01:09;;;;;;;1.85;0.50;;;12.10;99.90;;;;;;5002781;28;20028;-84
2021/05/21 08:03:35;;;;;;;5.30;0.80;;;12.10;99.90;;;;;;5018866;28;20186;-81
2021/05/21 08:06:01;;;;;;;3.97;1.05;;;12.10;99.90;;;;;;5003398;28;20058;-83
2021/05/21 08:08:27;;;;;;;4.45;1.50;;;12.00;99.90;;;;;;5035520;28;20033;-84
2021/05/21 08:10:58;;;;;;;4.30;1.00;;;12.10;99.90;;;;;;5035799;28;20017;-82
2021/05/21 08:13:24;;;;;;;3.30;0.75;;;12.10;99.90;;;;;;5034377;28;20391;-78
2021/05/21 08:15:50;;;;;;;4.47;1.33;;;12.10;99.90;;;;;;5018473;28;20415;-81
2021/05/21 08:18:16;;;;;;;5.20;1.00;;;12.10;99.90;;;;;;5019330;28;20040;-83
2021/05/21 08:20:43;;;;;;;5.82;0.80;;;12.10;99.90;;;;;;5018857;28;20105;-81
2021/05/21 08:23:09;;;;;;;4.05;0.93;;;12.10;99.90;;;;;;5036397;28;20545;-81
2021/05/21 08:25:35;;;;;;;2.47;0.60;;;12.10;99.90;;;;;;5019755;28;20481;-82
2021/05/21 08:28:01;;;;;;;3.88;1.05;;;12.10;99.90;;;;;;5018510;28;20131;-81
2021/05/21 08:30:27;;;;;;;3.97;1.35;;;12.10;99.90;;;;;;5035031;28;20025;-82
2021/05/21 08:32:53;;;;;;;2.60;0.80;;;12.10;99.90;;;;;;5019273;28;20500;-83
2021/05/21 08:35:20;;;;;;;5.15;0.90;;;12.10;99.90;;;;;;5019077;28;20098;-83
2021/05/21 08:37:46;;;;;;;3.97;1.08;;;12.10;99.90;;;;;;5018769;28;20041;-83
2021/05/21 08:40:20;;;;;;;5.65;1.23;;;12.10;99.90;;;;;;5054237;28;20033;-82
2021/05/21 08:42:46;;;;;;;3.55;0.85;;;12.10;99.90;;;;;;5037309;28;20128;-82
2021/05/21 08:45:16;;;;;;;2.33;0.75;;;12.10;99.90;;;;;;5036951;28;20057;-82
2021/05/21 08:47:42;;;;;;;2.22;0.90;;;12.20;99.90;;;;;;5018190;28;20386;-83
2021/05/21 08:50:11;;;;;;;4.60;1.20;;;12.10;99.90;;;;;;5051365;28;20431;-82
2021/05/21 08:52:37;;;;;;;4.88;1.33;;;12.20;99.90;;;;;;5035509;28;20028;-82
2021/05/21 08:55:07;;;;;;;5.88;1.08;;;12.20;99.90;;;;;;5034699;28;20029;-82
2021/05/21 08:57:32;;;;;;;3.75;1.17;;;12.20;99.90;;;;;;5037480;28;20040;-83
2021/05/21 08:59:58;;;;;;;4.28;1.30;;;12.20;99.90;;;;;;5035636;28;20487;-83
2021/05/21 09:02:29;;;;;;;7.28;1.77;;;12.30;99.90;;;;;;5018680;28;20040;-83
2021/05/21 09:04:59;;;;;;;3.83;0.93;;;12.30;99.90;;;;;;5054254;28;20029;-82
2021/05/21 09:07:35;;;;;;;2.97;0.88;;;12.40;99.90;;;;;;5055151;28;20057;-83
2021/05/21 09:10:07;;;;;;;2.80;0.70;;;12.40;99.90;;;;;;5035770;28;20029;-82
2021/05/21 09:12:46;;;;;;;4.15;0.90;;;12.40;99.90;;;;;;5053998;28;20460;-82
2021/05/21 09:15:19;;;;;;;4.90;0.73;;;12.50;99.90;;;;;;5019370;28;20029;-82
2021/05/21 09:21:07;;;;;;;10.75;1.50;;;12.60;99.90;;;;;;5047230;28;20085;-82
2021/05/21 09:23:33;;;;;;;4.57;0.95;;;12.70;99.90;;;;;;5017372;28;20490;-82
2021/05/21 09:25:59;;;;;;;7.15;1.17;;;12.70;99.90;;;;;;4984011;28;20074;-81
2021/05/21 09:28:39;;;;;;;5.70;0.90;;;12.60;99.90;;;;;;4984747;28;20483;-82
2021/05/21 09:31:12;;;;;;;3.53;0.80;;;12.70;99.90;;;;;;5018114;28;20063;-83
2021/05/21 09:33:45;;;;;;;2.47;0.90;;;12.60;99.90;;;;;;5000817;28;20025;-82
2021/05/21 09:36:11;;;;;;;4.25;1.00;;;12.60;99.90;;;;;;5016613;28;20190;-84
2021/05/21 09:38:48;;;;;;;3.88;1.10;;;12.60;99.90;;;;;;4999657;28;20138;-83
2021/05/21 09:41:14;;;;;;;1.83;0.85;;;12.60;99.90;;;;;;5001088;28;20129;-83
2021/05/21 09:43:40;;;;;;;4.68;1.40;;;12.60;99.90;;;;;;5017279;28;20456;-84
2021/05/21 09:46:11;;;;;;;3.78;1.15;;;12.60;99.90;;;;;;5017659;28;20380;-83
2021/05/21 09:48:37;;;;;;;4.45;1.75;;;12.70;99.90;;;;;;5049640;28;20021;-83
2021/05/21 09:51:03;;;;;;;4.80;1.98;;;12.70;99.90;;;;;;5015803;28;20068;-82
2021/05/21 09:53:32;;;;;;;5.65;2.55;;;12.70;99.90;;;;;;5016236;28;20407;-80
2021/05/21 09:56:06;;;;;;;2.08;0.82;;;12.80;99.90;;;;;;5029539;28;20035;-82
2021/05/21 09:58:42;;;;;;;3.13;1.15;;;12.80;99.90;;;;;;5051356;28;20040;-81
2021/05/21 10:01:22;;;;;;;3.13;0.82;;;12.90;99.90;;;;;;5034326;28;20029;-81
2021/05/21 10:04:00;;;;;;;2.38;0.70;;;12.90;99.90;;;;;;5054881;28;20052;-81
2021/05/21 10:06:28;;;;;;;4.03;1.02;;;12.90;99.90;;;;;;5035448;28;20025;-82
2021/05/21 10:08:56;;;;;;;3.55;0.90;;;12.90;99.90;;;;;;5052988;28;20032;-83
2021/05/21 10:11:22;;;;;;;2.33;1.17;;;12.90;99.90;;;;;;5035629;28;20459;-81
2021/05/21 10:13:49;;;;;;;7.40;0.95;;;13.00;99.90;;;;;;5036156;28;20051;-81
2021/05/21 10:16:19;;;;;;;1.63;0.50;;;13.00;99.90;;;;;;5035280;28;20033;-81
2021/05/21 10:18:47;;;;;;;2.63;0.80;;;13.00;99.90;;;;;;5035506;28;20087;-81
2021/05/21 10:21:13;;;;;;;2.00;0.65;;;13.00;99.90;;;;;;5053666;28;20028;-82
2021/05/21 10:23:50;;;;;;;1.70;0.65;;;13.00;99.90;;;;;;5034852;28;20459;-83
2021/05/21 10:26:21;;;;;;;1.63;0.73;;;13.00;99.90;;;;;;5034450;28;20047;-85
2021/05/21 10:28:50;;;;;;;4.38;1.10;;;13.10;99.90;;;;;;5017998;28;20029;-82
2021/05/21 10:31:19;;;;;;;3.22;1.67;;;13.10;99.90;;;;;;5034881;28;20719;-82
2021/05/21 10:33:45;;;;;;;4.07;1.48;;;13.10;99.90;;;;;;5034407;28;20032;-83
2021/05/21 10:36:23;;;;;;;3.38;1.45;;;13.00;99.90;;;;;;5017907;28;20048;-82
2021/05/21 10:39:16;;;;;;;3.17;1.10;;;13.00;99.90;;;;;;5029523;28;20487;-81
2021/05/21 10:42:00;;;;;;;4.53;1.10;;;13.00;99.90;;;;;;5034427;28;20098;-80
2021/05/21 10:44:28;;;;;;;2.78;0.70;;;13.00;99.90;;;;;;5017351;28;20120;-83
2021/05/21 10:47:16;;;;;;;3.17;1.48;;;13.00;99.90;;;;;;5033958;28;20052;-81
2021/05/21 10:49:51;;;;;;;2.25;1.02;;;13.00;99.90;;;;;;5025751;28;20031;-81
2021/05/21 10:52:17;;;;;;;4.38;1.50;;;13.10;99.90;;;;;;5032479;28;20124;-83
2021/05/21 10:54:48;;;;;;;6.45;2.22;;;13.10;99.90;;;;;;4999759;28;20028;-81
2021/05/21 10:57:14;;;;;;;6.28;3.00;;;13.00;99.90;;;;;;5016281;28;20029;-82
2021/05/21 10:59:41;;;;;;;7.40;2.92;;;12.90;99.90;;;;;;5017053;28;20056;-81
2021/05/21 11:02:08;;;;;;;5.50;1.75;;;12.90;99.90;;;;;;5020399;28;20025;-82
2021/05/21 11:04:34;;;;;;;6.70;1.40;;;12.80;99.90;;;;;;5036568;28;20021;-82
2021/05/21 11:07:03;;;;;;;5.68;1.40;;;12.80;99.90;;;;;;5053993;28;20490;-81
2021/05/21 11:09:31;;;;;;;5.50;1.60;;;12.80;99.90;;;;;;5036927;28;20200;-82
2021/05/21 11:12:08;;;;;;;3.13;1.13;;;12.80;99.90;;;;;;5019992;28;20041;-81
2021/05/21 11:14:42;;;;;;;3.92;1.10;;;12.80;99.90;;;;;;5036113;28;20112;-81
2021/05/21 11:17:12;;;;;;;2.78;1.00;;;12.80;99.90;;;;;;5056288;28;20032;-82
2021/05/21 11:19:54;;;;;;;1.70;0.90;;;12.80;99.90;;;;;;5036878;28;20459;-80
2021/05/21 11:22:23;;;;;;;4.63;1.73;;;12.90;99.90;;;;;;5036319;28;20033;-82
2021/05/21 11:25:11;;;;;;;7.45;1.83;;;12.90;99.90;;;;;;5036024;28;20017;-80
2021/05/21 11:27:37;;;;;;;2.13;0.93;;;12.90;99.90;;;;;;5033929;28;20041;-80
2021/05/21 11:30:13;;;;;;;3.88;1.40;;;12.90;99.90;;;;;;5035888;28;20025;-82
2021/05/21 11:32:40;;;;;;;2.70;1.38;;;12.80;99.90;;;;;;5036048;28;20048;-79
2021/05/21 11:35:08;;;;;;;3.08;1.50;;;12.80;99.90;;;;;;5055351;28;20017;-79
2021/05/21 11:37:34;;;;;;;5.50;1.75;;;12.90;99.90;;;;;;5021950;28;20033;-80
2021/05/21 11:40:06;;;;;;;4.35;2.05;;;13.00;99.90;;;;;;5019976;28;20097;-79
2021/05/21 11:42:32;;;;;;;3.88;1.63;;;13.10;99.90;;;;;;5036443;28;20028;-79
2021/05/21 11:44:58;;;;;;;3.08;1.20;;;13.10;99.90;;;;;;5020094;28;20059;-82
2021/05/21 11:47:25;;;;;;;5.30;1.77;;;13.10;99.90;;;;;;5021790;28;20028;-79
2021/05/21 11:49:55;;;;;;;3.92;2.13;;;13.10;99.90;;;;;;5036470;28;20021;-81
2021/05/21 11:52:21;;;;;;;5.10;1.92;;;13.10;99.90;;;;;;5018659;28;20036;-77
2021/05/21 11:54:48;;;;;;;5.93;2.22;;;13.10;99.90;;;;;;5053086;28;20127;-81
2021/05/21 11:57:19;;;;;;;5.75;1.98;;;13.30;99.90;;;;;;5053147;28;20044;-80
2021/05/21 11:59:47;;;;;;;7.25;2.10;;;13.40;99.90;;;;;;5034388;28;20021;-81
2021/05/21 12:02:14;;;;;;;5.82;1.80;;;13.50;99.90;;;;;;5034583;28;20021;-81
2021/05/21 12:04:42;;;;;;;4.38;1.52;;;13.50;99.90;;;;;;5018146;28;20029;-81
2021/05/21 12:07:18;;;;;;;5.35;1.80;;;13.50;99.90;;;;;;5018440;28;20029;-80
2021/05/21 12:10:05;;;;;;;5.80;2.13;;;13.50;99.90;;;;;;5034252;28;20029;-84
2021/05/21 12:12:32;;;;;;;5.63;1.88;;;13.50;99.90;;;;;;5018707;28;20484;-81
2021/05/21 12:15:14;;;;;;;3.88;1.73;;;13.60;99.90;;;;;;5034961;28;20052;-82
2021/05/21 12:17:45;;;;;;;6.28;1.77;;;13.70;99.90;;;;;;5018631;28;20462;-79
2021/05/21 12:20:11;;;;;;;9.05;1.77;;;13.80;99.90;;;;;;5051920;28;20479;-81
2021/05/21 12:22:37;;;;;;;6.40;1.80;;;13.80;99.90;;;;;;5017978;28;20540;-81
2021/05/21 12:25:19;;;;;;;5.95;1.92;;;13.90;99.90;;;;;;5035180;28;20041;-82
2021/05/21 12:27:45;;;;;;;4.95;1.40;;;14.00;99.90;;;;;;5019442;28;20040;-82
2021/05/21 12:30:12;;;;;;;8.82;1.65;;;14.20;99.90;;;;;;5036627;28;20445;-82
2021/05/21 12:32:38;;;;;;;5.45;1.35;;;14.40;99.90;;;;;;5019409;28;20116;-80
2021/05/21 12:35:08;;;;;;;6.22;1.65;;;14.40;99.90;;;;;;5035412;28;20104;-82
2021/05/21 12:37:34;;;;;;;6.72;1.30;;;14.40;99.90;;;;;;5054111;28;20029;-80
2021/05/21 12:40:01;;;;;;;6.97;1.27;;;14.30;99.90;;;;;;5019643;28;20442;-81
2021/05/21 12:42:27;;;;;;;7.40;1.88;;;14.20;99.90;;;;;;5018239;28;20474;-80
2021/05/21 12:44:53;;;;;;;4.68;1.38;;;14.20;99.90;;;;;;5052230;28;20092;-82
2021/05/21 12:47:20;;;;;;;5.07;1.58;;;14.20;99.90;;;;;;5036054;28;20040;-82
2021/05/21 12:49:47;;;;;;;7.13;1.80;;;14.20;99.90;;;;;;5035166;28;20021;-80
2021/05/21 12:52:13;;;;;;;6.85;2.60;;;14.20;99.90;;;;;;5033456;28;20025;-80